Time;durP1;ratioP1;P1;durP2;ratioP2;P2;SDS_P1;SDS_P2;PMS_P1;PMS_P2;Temp;Humidity;BMP_temperature;BMP_pressure;BME280_temperature;BME280_humidity;BME280_pressure;Samples;Min_cycle;Max_cycle;Signal;HPM_P1;HPM_P2
2023/01/22 00:01:31;;;;;;;9.88;8.88;;;3.00;1.00;;;;;;5033740;28;20045;-66
2023/01/22 00:03:57;;;;;;;11.00;8.60;;;3.10;1.00;;;;;;5033933;28;20034;-67
2023/01/22 00:06:22;;;;;;;10.88;8.85;;;3.10;1.00;;;;;;5029282;28;20572;-67
2023/01/22 00:08:49;;;;;;;11.45;9.05;;;2.80;1.00;;;;;;5049618;28;20510;-68
2023/01/22 00:11:16;;;;;;;11.80;8.85;;;2.70;1.00;;;;;;5045480;28;20411;-68
2023/01/22 00:13:42;;;;;;;11.63;8.90;;;2.60;1.00;;;;;;5053677;28;20203;-67
2023/01/22 00:16:14;;;;;;;10.35;8.80;;;3.00;1.00;;;;;;5030441;28;20056;-67
2023/01/22 00:18:40;;;;;;;10.18;8.93;;;2.80;1.00;;;;;;5039378;28;20041;-67
2023/01/22 00:21:06;;;;;;;10.07;8.63;;;2.70;1.00;;;;;;5051620;28;20041;-68
2023/01/22 00:23:32;;;;;;;10.20;8.40;;;2.90;1.00;;;;;;5039255;28;20073;-67
2023/01/22 00:26:02;;;;;;;11.60;8.32;;;2.80;1.00;;;;;;5032016;28;20128;-68
2023/01/22 00:28:29;;;;;;;11.15;8.60;;;2.80;1.00;;;;;;5038581;28;20025;-67
2023/01/22 00:31:02;;;;;;;12.85;8.35;;;2.90;1.00;;;;;;5050527;28;20033;-67
2023/01/22 00:33:28;;;;;;;10.23;8.30;;;2.80;1.00;;;;;;5037886;28;20051;-67
2023/01/22 00:35:54;;;;;;;10.57;8.85;;;2.80;1.00;;;;;;5018198;28;20404;-67
2023/01/22 00:38:20;;;;;;;11.40;8.52;;;2.70;1.00;;;;;;5043618;28;20033;-67
2023/01/22 00:40:45;;;;;;;11.95;9.25;;;2.60;1.00;;;;;;5032953;28;20033;-67
2023/01/22 00:43:11;;;;;;;12.00;9.20;;;2.50;1.00;;;;;;5033141;28;20064;-66
2023/01/22 00:45:36;;;;;;;14.48;9.40;;;2.40;1.00;;;;;;5032299;28;20687;-67
2023/01/22 00:48:02;;;;;;;12.70;9.27;;;2.50;1.00;;;;;;5045465;28;20052;-67
2023/01/22 00:50:28;;;;;;;11.60;9.43;;;2.30;1.00;;;;;;5051138;28;20041;-67
2023/01/22 00:52:53;;;;;;;12.18;9.13;;;2.40;1.00;;;;;;5048777;28;20498;-68
2023/01/22 00:55:19;;;;;;;11.60;8.88;;;2.40;1.00;;;;;;5047832;28;20060;-68
2023/01/22 00:57:44;;;;;;;10.40;8.77;;;2.50;18.80;;;;;;5033923;28;20498;-68
2023/01/22 01:00:13;;;;;;;12.00;8.57;;;2.40;35.70;;;;;;5033487;28;20045;-68
2023/01/22 01:05:24;;;;;;;12.88;8.90;;;2.80;59.30;;;;;;5031302;28;20439;-67
2023/01/22 01:07:49;;;;;;;11.52;8.68;;;2.60;74.80;;;;;;5054796;28;20060;-67
2023/01/22 01:10:15;;;;;;;9.80;8.02;;;2.80;81.80;;;;;;5032914;28;20124;-68
2023/01/22 01:12:41;;;;;;;11.18;7.88;;;2.80;74.80;;;;;;5048337;28;20037;-68
2023/01/22 01:15:07;;;;;;;9.38;7.45;;;2.70;58.10;;;;;;5043713;28;20041;-68
2023/01/22 01:17:34;;;;;;;9.50;7.60;;;2.80;56.80;;;;;;5045711;28;20044;-67
2023/01/22 01:20:00;;;;;;;9.52;7.68;;;2.90;59.10;;;;;;5050725;28;20049;-66
2023/01/22 01:22:25;;;;;;;8.65;7.63;;;2.90;47.80;;;;;;5035600;28;20052;-67
2023/01/22 01:24:51;;;;;;;12.23;7.95;;;2.70;32.10;;;;;;5030093;28;20045;-67
2023/01/22 01:27:17;;;;;;;10.32;7.60;;;2.80;26.50;;;;;;5033152;28;20132;-67
2023/01/22 01:29:42;;;;;;;10.93;7.63;;;2.60;30.00;;;;;;5036337;28;20111;-67
2023/01/22 01:32:08;;;;;;;9.85;7.57;;;2.70;33.20;;;;;;5047488;28;20064;-66
2023/01/22 01:34:33;;;;;;;10.00;7.65;;;3.00;36.80;;;;;;5034957;28;20410;-68
2023/01/22 01:36:59;;;;;;;8.75;6.97;;;2.90;38.20;;;;;;5040440;28;20095;-68
2023/01/22 01:39:24;;;;;;;10.93;7.20;;;2.80;36.30;;;;;;5031704;28;20053;-68
2023/01/22 01:41:50;;;;;;;14.55;6.80;;;3.00;35.50;;;;;;5047970;28;20053;-68
2023/01/22 01:44:21;;;;;;;11.13;6.90;;;3.10;31.80;;;;;;5034691;28;20037;-68
2023/01/22 01:47:00;;;;;;;9.65;6.80;;;2.90;1.00;;;;;;5054799;28;20049;-68
2023/01/22 01:49:33;;;;;;;7.97;7.18;;;2.80;22.60;;;;;;5058648;28;20043;-67
2023/01/22 01:52:03;;;;;;;12.52;7.18;;;2.80;27.70;;;;;;5049390;28;20036;-68
2023/01/22 01:54:30;;;;;;;11.13;7.20;;;2.80;37.90;;;;;;5050219;28;20048;-67
2023/01/22 01:57:05;;;;;;;8.30;7.05;;;2.90;1.00;;;;;;5039543;28;20064;-68
2023/01/22 01:59:32;;;;;;;12.43;7.22;;;3.00;19.50;;;;;;5038074;28;20479;-67
2023/01/22 02:02:00;;;;;;;9.88;6.85;;;3.10;34.00;;;;;;5031946;28;20049;-67
2023/01/22 02:04:26;;;;;;;9.82;7.05;;;2.80;40.20;;;;;;5017163;28;20041;-67
2023/01/22 02:06:53;;;;;;;11.38;7.55;;;2.80;42.30;;;;;;5024606;28;20072;-67
2023/01/22 02:09:19;;;;;;;11.60;6.95;;;2.80;43.40;;;;;;5056461;28;20081;-67
2023/01/22 02:11:44;;;;;;;8.70;6.65;;;3.00;45.10;;;;;;5036608;28;20073;-67
2023/01/22 02:14:17;;;;;;;9.57;6.80;;;3.10;28.70;;;;;;5035575;28;20041;-68
2023/01/22 02:16:43;;;;;;;10.95;6.68;;;3.20;23.40;;;;;;5040498;28;20045;-68
2023/01/22 02:19:08;;;;;;;10.80;6.78;;;3.10;21.50;;;;;;5031731;28;20550;-68
2023/01/22 02:21:36;;;;;;;11.77;6.30;;;3.20;15.60;;;;;;5037484;28;20134;-68
2023/01/22 02:24:13;;;;;;;7.43;6.38;;;2.90;13.90;;;;;;5046221;28;20037;-67
2023/01/22 02:26:40;;;;;;;7.78;6.38;;;3.00;7.30;;;;;;5024738;28;20048;-68
2023/01/22 02:29:07;;;;;;;8.02;6.53;;;3.00;8.70;;;;;;5061389;28;20180;-68
2023/01/22 02:31:35;;;;;;;10.75;6.10;;;3.20;7.70;;;;;;5046887;28;20045;-68
2023/01/22 02:34:04;;;;;;;10.80;6.60;;;3.30;7.90;;;;;;5047060;28;20060;-68
2023/01/22 02:36:31;;;;;;;13.02;6.55;;;3.10;8.20;;;;;;5033348;28;20037;-69
2023/01/22 02:38:57;;;;;;;7.28;6.25;;;3.30;1.00;;;;;;5033385;28;20045;-67
2023/01/22 02:41:22;;;;;;;8.68;6.10;;;3.00;1.00;;;;;;5053480;28;20041;-68
2023/01/22 02:43:48;;;;;;;7.35;5.93;;;3.00;1.00;;;;;;5041340;28;20044;-67
2023/01/22 02:46:13;;;;;;;8.10;6.40;;;2.90;1.00;;;;;;5046177;28;20036;-67
2023/01/22 02:48:39;;;;;;;11.45;6.50;;;2.80;1.00;;;;;;5035086;28;20037;-67
2023/01/22 02:51:05;;;;;;;8.40;6.28;;;3.00;1.00;;;;;;5035505;28;20258;-68
2023/01/22 02:53:31;;;;;;;7.50;5.93;;;2.80;1.00;;;;;;5048065;28;20088;-68
2023/01/22 02:55:56;;;;;;;7.95;6.15;;;3.10;1.00;;;;;;5039662;28;20049;-68
2023/01/22 02:58:22;;;;;;;9.40;6.22;;;2.80;1.00;;;;;;5064320;28;20505;-68
2023/01/22 03:00:47;;;;;;;8.52;6.30;;;3.00;1.00;;;;;;5064243;28;20041;-68
2023/01/22 03:03:16;;;;;;;9.23;6.45;;;2.90;1.00;;;;;;5041077;28;20482;-68
2023/01/22 03:05:49;;;;;;;12.18;6.55;;;3.10;1.00;;;;;;5046613;28;20072;-68
2023/01/22 03:08:15;;;;;;;7.50;6.47;;;3.00;1.00;;;;;;5042265;28;20396;-68
2023/01/22 03:10:41;;;;;;;9.20;6.45;;;3.10;1.00;;;;;;5047887;28;20548;-68
2023/01/22 03:21:19;;;;;;;10.32;6.50;;;3.20;12.00;;;;;;5053989;28;20095;-69
2023/01/22 03:23:50;;;;;;;12.40;6.97;;;3.10;60.80;;;;;;5033146;28;20483;-68
2023/01/22 03:26:17;;;;;;;8.10;6.35;;;3.00;70.20;;;;;;5050762;28;20502;-68
2023/01/22 03:28:44;;;;;;;10.50;7.07;;;3.00;55.00;;;;;;5052671;28;20094;-68
2023/01/22 03:31:11;;;;;;;12.38;6.85;;;3.20;55.70;;;;;;5067652;28;20068;-68
2023/01/22 03:33:37;;;;;;;9.20;6.80;;;2.90;62.00;;;;;;5052336;28;20556;-67
2023/01/22 03:36:06;;;;;;;9.13;7.28;;;2.80;74.40;;;;;;5042891;28;20121;-68
2023/01/22 03:38:32;;;;;;;10.52;7.88;;;3.20;92.00;;;;;;5033198;28;20120;-68
2023/01/22 03:41:06;;;;;;;10.75;7.18;;;3.20;99.90;;;;;;5065690;28;20116;-67
2023/01/22 03:43:32;;;;;;;12.27;7.70;;;3.00;99.90;;;;;;5026272;28;20483;-67
2023/01/22 03:46:17;;;;;;;11.02;7.47;;;3.00;99.90;;;;;;5029146;28;20060;-67
2023/01/22 03:48:44;;;;;;;12.73;7.85;;;3.40;99.90;;;;;;5060377;28;20037;-68
2023/01/22 03:51:14;;;;;;;11.77;7.40;;;3.10;99.90;;;;;;5035338;28;20034;-67
2023/01/22 03:53:42;;;;;;;9.90;7.22;;;3.00;99.90;;;;;;5031106;28;20053;-70
2023/01/22 03:56:12;;;;;;;11.05;7.03;;;3.20;99.90;;;;;;5031538;28;20069;-68
2023/01/22 03:58:38;;;;;;;8.43;6.70;;;3.00;99.90;;;;;;5032581;28;20042;-68
2023/01/22 04:01:07;;;;;;;10.73;7.50;;;3.00;99.90;;;;;;5030119;28;20071;-68
2023/01/22 04:03:34;;;;;;;11.60;6.95;;;3.00;99.90;;;;;;5031143;28;20132;-68
2023/01/22 04:06:00;;;;;;;9.52;6.72;;;3.30;99.90;;;;;;5033098;28;20073;-67
2023/01/22 04:08:30;;;;;;;10.93;6.55;;;3.20;99.90;;;;;;5031494;28;20147;-68
2023/01/22 04:10:57;;;;;;;9.52;6.43;;;3.20;99.90;;;;;;5048831;28;20086;-68
2023/01/22 04:13:28;;;;;;;10.43;5.28;;;3.30;99.90;;;;;;5058800;28;20047;-69
2023/01/22 04:15:54;;;;;;;12.70;4.97;;;3.30;99.90;;;;;;5053264;28;20033;-69
2023/01/22 04:18:19;;;;;;;7.82;5.10;;;3.70;99.90;;;;;;5039502;28;20040;-68
2023/01/22 04:20:47;;;;;;;7.43;4.75;;;3.80;99.90;;;;;;5062574;28;20044;-68
2023/01/22 04:23:12;;;;;;;9.32;4.75;;;3.70;99.90;;;;;;5040190;28;20034;-67
2023/01/22 04:25:38;;;;;;;9.88;4.63;;;3.70;99.90;;;;;;5049512;28;20518;-67
2023/01/22 04:28:05;;;;;;;6.65;3.97;;;3.70;77.60;;;;;;5032713;28;20114;-67
2023/01/22 04:30:31;;;;;;;9.07;3.83;;;3.90;47.50;;;;;;5044047;28;20449;-67
2023/01/22 04:32:56;;;;;;;9.80;3.63;;;3.70;15.80;;;;;;5042214;28;20042;-68
2023/01/22 04:35:22;;;;;;;6.95;3.55;;;3.80;1.00;;;;;;5045474;28;20057;-69
2023/01/22 04:37:48;;;;;;;6.60;3.17;;;3.90;1.00;;;;;;5040673;28;20040;-69
2023/01/22 04:40:14;;;;;;;8.23;2.80;;;4.00;1.00;;;;;;5032291;28;20037;-68
2023/01/22 04:42:39;;;;;;;7.00;3.08;;;4.10;1.00;;;;;;5047637;28;20037;-69
2023/01/22 04:45:05;;;;;;;8.63;3.20;;;4.00;1.00;;;;;;5042882;28;20041;-67
2023/01/22 04:47:31;;;;;;;10.52;3.42;;;4.10;1.00;;;;;;5044131;28;20129;-67
2023/01/22 04:49:57;;;;;;;8.05;3.50;;;4.00;1.00;;;;;;5042622;28;20453;-68
2023/01/22 04:52:22;;;;;;;8.30;3.08;;;3.90;1.00;;;;;;5031963;28;20102;-69
2023/01/22 04:54:50;;;;;;;5.63;3.55;;;4.00;1.00;;;;;;5029974;28;20041;-68
2023/01/22 04:57:16;;;;;;;8.63;3.78;;;3.90;1.00;;;;;;5048899;28;20030;-68
2023/01/22 04:59:42;;;;;;;9.82;3.33;;;3.90;1.00;;;;;;5051569;28;20513;-68
2023/01/22 05:02:07;;;;;;;6.30;3.47;;;3.90;1.00;;;;;;5042569;28;20033;-69
2023/01/22 05:04:33;;;;;;;5.13;3.28;;;3.80;1.00;;;;;;5047189;28;20037;-68
2023/01/22 05:06:58;;;;;;;5.65;3.58;;;4.00;1.00;;;;;;5033740;28;20058;-67
2023/01/22 05:09:25;;;;;;;6.15;4.05;;;4.00;1.00;;;;;;5050859;28;20056;-68
2023/01/22 05:11:50;;;;;;;5.75;3.72;;;3.80;1.00;;;;;;5033710;28;20054;-68
2023/01/22 05:14:16;;;;;;;8.23;4.20;;;3.60;1.00;;;;;;5035338;28;20076;-68
2023/01/22 05:16:42;;;;;;;10.65;3.90;;;3.80;1.00;;;;;;5030555;28;20041;-68
2023/01/22 05:19:07;;;;;;;11.77;4.50;;;3.60;1.00;;;;;;5011757;28;20495;-69
2023/01/22 05:21:33;;;;;;;9.75;3.95;;;3.70;1.00;;;;;;5011286;28;20103;-68
2023/01/22 05:23:58;;;;;;;8.55;4.00;;;3.90;1.00;;;;;;5030593;28;20063;-68
2023/01/22 05:26:24;;;;;;;7.47;3.83;;;3.70;1.00;;;;;;5042848;28;20044;-68
2023/01/22 05:28:49;;;;;;;7.63;4.20;;;3.60;1.00;;;;;;5033005;28;20038;-68
2023/01/22 05:31:15;;;;;;;7.72;4.55;;;3.70;1.00;;;;;;5050547;28;20087;-68
2023/01/22 05:33:41;;;;;;;9.32;4.50;;;3.90;1.00;;;;;;5040173;28;20427;-68
2023/01/22 05:36:09;;;;;;;8.55;4.13;;;3.80;1.00;;;;;;5026413;28;20554;-69
2023/01/22 05:38:35;;;;;;;9.05;4.75;;;3.80;1.00;;;;;;5062806;28;20032;-68
2023/01/22 05:41:00;;;;;;;9.75;4.88;;;3.70;1.00;;;;;;5050990;28;20037;-68
2023/01/22 05:43:26;;;;;;;13.45;4.68;;;3.80;1.00;;;;;;5036349;28;20462;-68
2023/01/22 05:45:51;;;;;;;9.88;5.60;;;3.90;1.00;;;;;;5031179;28;20104;-68
2023/01/22 05:48:17;;;;;;;14.68;5.32;;;3.90;1.00;;;;;;5038322;28;20375;-68
2023/01/22 05:50:42;;;;;;;8.32;4.93;;;3.80;1.00;;;;;;5050084;28;20044;-68
2023/01/22 05:53:08;;;;;;;11.93;5.32;;;3.80;1.00;;;;;;5051726;28;20033;-68
2023/01/22 05:55:34;;;;;;;7.80;5.22;;;3.90;1.00;;;;;;5034051;28;20076;-69
2023/01/22 05:58:00;;;;;;;9.05;5.38;;;3.90;1.00;;;;;;5043841;28;20060;-69
2023/01/22 06:00:26;;;;;;;7.78;5.40;;;3.70;1.00;;;;;;5050554;28;20435;-70
2023/01/22 06:02:58;;;;;;;9.48;5.55;;;3.80;1.00;;;;;;5032053;28;20030;-69
2023/01/22 06:05:24;;;;;;;9.23;5.38;;;3.70;1.00;;;;;;5047371;28;20037;-68
2023/01/22 06:07:50;;;;;;;11.13;5.70;;;3.60;1.00;;;;;;5023534;28;20417;-68
2023/01/22 06:10:16;;;;;;;8.68;5.45;;;3.70;1.00;;;;;;5050295;28;20053;-68
2023/01/22 06:12:42;;;;;;;12.73;5.50;;;3.80;1.00;;;;;;5038018;28;20084;-69
2023/01/22 06:15:08;;;;;;;10.18;5.65;;;3.60;1.00;;;;;;5050285;28;20103;-68
2023/01/22 06:17:34;;;;;;;8.63;5.60;;;3.60;1.00;;;;;;5037534;28;20506;-68
2023/01/22 06:20:00;;;;;;;11.48;6.18;;;3.60;1.00;;;;;;5043950;28;20064;-69
2023/01/22 06:22:25;;;;;;;11.52;5.30;;;3.50;1.00;;;;;;5047552;28;20064;-69
2023/01/22 06:24:51;;;;;;;8.63;5.30;;;3.60;5.40;;;;;;5050996;28;20124;-68
2023/01/22 06:27:17;;;;;;;12.65;5.85;;;3.40;11.20;;;;;;5048279;28;20057;-67
2023/01/22 06:29:42;;;;;;;12.60;6.30;;;3.40;24.40;;;;;;5050710;28;20124;-68
2023/01/22 06:32:08;;;;;;;11.02;5.65;;;3.40;31.50;;;;;;5044168;28;20446;-68
2023/01/22 06:34:34;;;;;;;10.98;6.00;;;3.60;37.40;;;;;;5036469;28;20033;-69
2023/01/22 06:36:59;;;;;;;10.45;5.72;;;3.70;35.80;;;;;;5046016;28;20437;-69
2023/01/22 06:39:25;;;;;;;10.48;6.28;;;3.60;36.60;;;;;;5035198;28;20439;-69
2023/01/22 06:41:50;;;;;;;8.77;6.05;;;3.80;32.80;;;;;;5035507;28;20076;-69
2023/01/22 06:44:17;;;;;;;15.35;6.30;;;3.60;24.40;;;;;;5050428;28;20557;-68
2023/01/22 06:46:44;;;;;;;8.50;6.43;;;3.80;8.70;;;;;;5034432;28;20045;-69
2023/01/22 06:49:10;;;;;;;6.90;5.50;;;3.70;1.00;;;;;;5031615;28;20067;-68
2023/01/22 06:51:36;;;;;;;12.60;6.00;;;3.70;1.00;;;;;;5050418;28;20033;-69
2023/01/22 06:54:01;;;;;;;9.60;5.53;;;3.80;1.00;;;;;;5049400;28;20033;-68
2023/01/22 06:56:27;;;;;;;11.85;6.10;;;3.80;1.00;;;;;;5033044;28;20040;-69
2023/01/22 06:58:52;;;;;;;8.38;6.28;;;3.90;1.00;;;;;;5033806;28;20041;-69
2023/01/22 07:01:18;;;;;;;13.10;6.13;;;3.70;1.00;;;;;;5015507;28;20033;-69
2023/01/22 07:03:44;;;;;;;9.07;5.68;;;3.80;1.00;;;;;;5048642;28;20095;-68
2023/01/22 07:06:10;;;;;;;7.43;5.60;;;3.90;1.00;;;;;;5041869;28;20059;-68
2023/01/22 07:08:36;;;;;;;8.35;5.38;;;3.90;1.00;;;;;;5042112;28;20045;-68
2023/01/22 07:11:02;;;;;;;8.82;5.65;;;3.80;1.00;;;;;;5045386;28;20505;-68
2023/01/22 07:13:28;;;;;;;11.38;5.47;;;3.90;1.00;;;;;;5050082;28;20038;-69
2023/01/22 07:15:53;;;;;;;10.60;5.82;;;4.00;1.00;;;;;;5033226;28;20120;-69
2023/01/22 07:18:22;;;;;;;14.55;5.20;;;3.80;1.00;;;;;;5038672;28;20083;-69
2023/01/22 07:20:48;;;;;;;10.05;5.75;;;3.80;1.00;;;;;;5032394;28;20042;-69
2023/01/22 07:23:14;;;;;;;7.88;5.35;;;4.00;1.00;;;;;;5032505;28;20064;-69
2023/01/22 07:25:39;;;;;;;11.18;5.78;;;3.90;1.00;;;;;;5048194;28;20041;-68
2023/01/22 07:28:05;;;;;;;10.52;5.95;;;3.70;1.00;;;;;;5037099;28;20037;-68
2023/01/22 07:30:31;;;;;;;10.35;5.88;;;3.70;1.00;;;;;;5054086;28;20040;-69
2023/01/22 07:32:59;;;;;;;9.63;5.78;;;3.60;1.00;;;;;;5026780;28;20057;-69
2023/01/22 07:35:25;;;;;;;11.40;5.72;;;3.50;1.00;;;;;;5033267;28;20042;-68
2023/01/22 07:37:52;;;;;;;7.57;5.35;;;3.50;1.00;;;;;;5031425;28;20040;-69
2023/01/22 07:40:18;;;;;;;10.73;5.60;;;3.70;1.00;;;;;;5035305;28;20176;-70
2023/01/22 07:42:43;;;;;;;10.65;5.55;;;3.60;1.00;;;;;;5048979;28;20116;-69
2023/01/22 07:45:09;;;;;;;12.00;5.70;;;3.70;1.00;;;;;;5037389;28;20465;-69
2023/01/22 07:47:34;;;;;;;9.27;5.60;;;3.50;1.00;;;;;;5035293;28;20041;-68
2023/01/22 07:50:00;;;;;;;9.95;5.50;;;3.50;1.00;;;;;;5045505;28;20431;-68
2023/01/22 07:52:26;;;;;;;9.65;5.47;;;3.50;1.00;;;;;;5034542;28;20541;-69
2023/01/22 07:54:51;;;;;;;10.68;5.47;;;3.60;1.00;;;;;;5025748;28;20511;-69
2023/01/22 07:57:17;;;;;;;13.35;4.95;;;3.60;1.00;;;;;;5062043;28;20040;-69
2023/01/22 07:59:43;;;;;;;15.38;5.38;;;3.70;1.00;;;;;;5032906;28;20091;-69
2023/01/22 08:02:11;;;;;;;8.43;5.38;;;3.70;1.00;;;;;;5035675;28;20041;-69
2023/01/22 08:04:38;;;;;;;9.93;5.40;;;3.60;1.00;;;;;;5058431;28;20038;-69
2023/01/22 08:07:03;;;;;;;10.30;5.47;;;3.60;1.00;;;;;;5050620;28;20092;-68
2023/01/22 08:09:29;;;;;;;11.70;5.60;;;3.60;1.00;;;;;;5062016;28;20080;-69
2023/01/22 08:11:54;;;;;;;6.72;4.60;;;3.80;1.00;;;;;;5047524;28;20045;-69
2023/01/22 08:14:20;;;;;;;7.03;5.40;;;3.80;1.00;;;;;;5049099;28;20033;-69
2023/01/22 08:16:45;;;;;;;8.90;5.28;;;3.80;1.00;;;;;;5031159;28;20037;-69
2023/01/22 08:19:11;;;;;;;9.07;4.93;;;3.70;1.00;;;;;;5041230;28;20159;-69
2023/01/22 08:21:37;;;;;;;11.45;4.75;;;3.90;1.00;;;;;;5064546;28;20112;-69
2023/01/22 08:24:03;;;;;;;8.45;5.25;;;3.80;1.00;;;;;;5048951;28;20048;-69
2023/01/22 08:26:29;;;;;;;14.23;5.05;;;3.70;1.00;;;;;;5048784;28;20060;-69
2023/01/22 08:28:55;;;;;;;8.02;5.32;;;3.80;1.00;;;;;;5035076;28;20041;-69
2023/01/22 08:31:20;;;;;;;12.35;5.10;;;3.90;1.00;;;;;;5034859;28;20048;-69
2023/01/22 08:33:46;;;;;;;8.60;4.43;;;3.70;1.00;;;;;;5051795;28;20036;-68
2023/01/22 08:36:11;;;;;;;7.82;4.75;;;4.00;1.00;;;;;;5042643;28;20038;-69
2023/01/22 08:38:37;;;;;;;10.23;4.45;;;3.80;1.00;;;;;;5039271;28;20390;-69
2023/01/22 08:41:02;;;;;;;8.88;4.47;;;3.90;1.00;;;;;;5049187;28;20505;-69
2023/01/22 08:43:28;;;;;;;12.55;4.60;;;4.00;1.00;;;;;;5031753;28;20038;-69
2023/01/22 08:45:54;;;;;;;7.90;4.70;;;3.90;1.00;;;;;;5047563;28;20114;-67
2023/01/22 08:48:20;;;;;;;9.30;4.75;;;3.80;1.00;;;;;;5034543;28;20065;-66
2023/01/22 08:50:45;;;;;;;7.97;4.70;;;4.00;1.00;;;;;;5030548;28;20122;-67
2023/01/22 08:53:11;;;;;;;9.25;5.10;;;3.80;1.00;;;;;;5042686;28;20049;-66
2023/01/22 08:55:36;;;;;;;14.48;4.80;;;3.80;1.00;;;;;;5028586;28;20047;-67
2023/01/22 08:58:02;;;;;;;10.05;4.40;;;3.90;1.00;;;;;;5030052;28;20044;-66
2023/01/22 09:00:28;;;;;;;12.35;4.68;;;3.70;1.00;;;;;;5033673;28;20712;-66
2023/01/22 09:02:58;;;;;;;7.47;4.50;;;3.80;1.00;;;;;;5034083;28;20035;-66
2023/01/22 09:05:24;;;;;;;8.68;5.03;;;3.90;1.00;;;;;;5012016;28;20114;-67
2023/01/22 09:07:50;;;;;;;8.63;4.40;;;3.80;1.00;;;;;;5030081;28;20537;-67
2023/01/22 09:10:16;;;;;;;8.18;4.50;;;4.00;1.00;;;;;;5034088;28;20049;-69
2023/01/22 09:12:41;;;;;;;9.55;4.03;;;3.90;1.00;;;;;;5030069;28;20044;-65
2023/01/22 09:15:07;;;;;;;7.70;4.38;;;4.00;1.00;;;;;;5013976;28;20547;-66
2023/01/22 09:17:33;;;;;;;9.07;3.70;;;3.90;1.00;;;;;;5024333;28;20056;-65
2023/01/22 09:19:58;;;;;;;5.93;3.38;;;4.00;1.00;;;;;;5045859;28;20053;-65
2023/01/22 09:22:24;;;;;;;6.45;3.80;;;4.10;1.00;;;;;;5029840;28;20037;-66
2023/01/22 09:24:50;;;;;;;10.00;3.70;;;4.00;1.00;;;;;;5039909;28;20033;-65
2023/01/22 09:27:15;;;;;;;8.93;3.58;;;4.20;1.00;;;;;;5029987;28;20091;-64
2023/01/22 09:29:41;;;;;;;13.60;4.07;;;4.20;99.90;;;;;;5061682;28;20140;-65
2023/01/22 09:32:07;;;;;;;6.20;3.72;;;4.20;99.90;;;;;;5029363;28;20517;-66
2023/01/22 09:34:33;;;;;;;16.42;4.13;;;4.20;99.90;;;;;;5049666;28;20061;-66
2023/01/22 09:37:01;;;;;;;7.38;3.88;;;4.10;99.90;;;;;;5055762;28;20045;-63
2023/01/22 09:39:27;;;;;;;6.03;3.75;;;4.10;99.90;;;;;;5043051;28;20053;-68
2023/01/22 09:41:55;;;;;;;9.25;4.50;;;4.30;99.90;;;;;;5040007;28;20044;-65
2023/01/22 09:44:38;;;;;;;10.35;4.18;;;4.30;99.90;;;;;;5050323;28;20041;-67
2023/01/22 09:47:10;;;;;;;13.68;4.43;;;4.10;99.90;;;;;;5044509;28;20060;-67
2023/01/22 09:49:46;;;;;;;9.82;4.45;;;4.30;99.90;;;;;;5048992;28;20045;-66
2023/01/22 09:52:12;;;;;;;10.15;4.50;;;4.10;99.90;;;;;;5047712;28;20063;-66
2023/01/22 09:54:37;;;;;;;10.98;5.10;;;4.20;99.90;;;;;;5053047;28;20033;-65
2023/01/22 09:57:06;;;;;;;13.02;5.70;;;4.30;99.90;;;;;;5044180;28;20045;-66
2023/01/22 09:59:38;;;;;;;14.15;6.35;;;4.10;99.90;;;;;;5038632;28;20465;-67
2023/01/22 10:02:34;;;;;;;12.02;5.68;;;4.10;99.90;;;;;;5051858;28;20094;-66
2023/01/22 10:05:17;;;;;;;17.88;5.63;;;4.30;99.90;;;;;;5051768;28;20048;-66
2023/01/22 10:07:50;;;;;;;9.80;4.72;;;4.10;99.90;;;;;;5032870;28;20115;-66
2023/01/22 10:10:19;;;;;;;9.77;4.85;;;4.30;99.90;;;;;;5049811;28;20042;-66
2023/01/22 10:12:58;;;;;;;10.35;5.07;;;4.30;99.90;;;;;;5054887;28;20564;-66
2023/01/22 10:15:24;;;;;;;8.50;4.80;;;4.30;99.90;;;;;;5054434;28;20105;-66
2023/01/22 10:17:52;;;;;;;13.43;4.80;;;4.30;99.90;;;;;;5027468;28;20076;-66
2023/01/22 10:20:19;;;;;;;10.43;4.32;;;4.20;99.90;;;;;;5049502;28;20045;-64
2023/01/22 10:22:47;;;;;;;10.70;5.05;;;4.20;99.90;;;;;;5053910;28;20049;-68
2023/01/22 10:25:15;;;;;;;9.63;4.70;;;4.40;99.90;;;;;;5054088;28;20045;-67
2023/01/22 10:27:42;;;;;;;8.30;4.43;;;4.30;99.90;;;;;;5042548;28;20063;-67
2023/01/22 10:30:13;;;;;;;10.80;5.10;;;4.40;99.90;;;;;;5050266;28;20539;-66
2023/01/22 10:32:39;;;;;;;9.75;4.60;;;4.40;99.90;;;;;;5049429;28;20178;-66
2023/01/22 10:35:10;;;;;;;10.82;4.75;;;4.20;99.90;;;;;;5040546;28;20470;-67
2023/01/22 10:37:48;;;;;;;9.77;4.68;;;4.40;99.90;;;;;;5040981;28;20041;-67
2023/01/22 10:40:21;;;;;;;12.60;4.57;;;4.50;99.90;;;;;;5029858;28;20068;-66
2023/01/22 10:43:06;;;;;;;9.00;4.18;;;4.30;99.90;;;;;;5049987;28;20137;-65
2023/01/22 10:45:31;;;;;;;10.32;4.25;;;4.40;99.90;;;;;;5037941;28;20068;-66
2023/01/22 10:48:07;;;;;;;7.15;4.28;;;4.50;99.90;;;;;;5060086;28;20541;-66
2023/01/22 10:50:32;;;;;;;14.82;4.10;;;4.50;99.90;;;;;;5039953;28;20119;-66
2023/01/22 10:52:58;;;;;;;8.18;4.07;;;4.40;99.90;;;;;;5049602;28;20072;-66
2023/01/22 10:55:29;;;;;;;7.78;3.72;;;4.40;99.90;;;;;;5035843;28;20036;-65
2023/01/22 10:58:02;;;;;;;7.18;3.88;;;4.40;99.90;;;;;;5040635;28;20033;-67
2023/01/22 11:00:32;;;;;;;6.57;3.60;;;4.40;99.90;;;;;;5036494;28;20033;-66
2023/01/22 11:02:58;;;;;;;16.30;4.32;;;4.40;99.90;;;;;;5041498;28;20081;-65
2023/01/22 11:05:32;;;;;;;8.50;4.55;;;4.40;99.90;;;;;;5026113;28;20061;-66
2023/01/22 11:08:10;;;;;;;9.50;4.50;;;4.50;99.90;;;;;;5047773;28;20076;-66
2023/01/22 11:10:46;;;;;;;8.00;4.57;;;4.50;99.90;;;;;;5039359;28;20049;-66
2023/01/22 11:13:27;;;;;;;10.77;4.65;;;4.50;99.90;;;;;;5051471;28;20490;-67
2023/01/22 11:16:05;;;;;;;7.65;3.97;;;4.60;99.90;;;;;;5053007;28;20124;-65
2023/01/22 11:18:35;;;;;;;10.48;4.60;;;4.50;99.90;;;;;;5046180;28;20116;-65
2023/01/22 11:21:09;;;;;;;8.93;4.57;;;4.50;99.90;;;;;;5053987;28;20116;-65
2023/01/22 11:23:59;;;;;;;7.97;5.15;;;4.50;99.90;;;;;;5037696;28;20092;-65
2023/01/22 11:26:39;;;;;;;9.85;5.10;;;4.70;99.90;;;;;;5026542;28;20063;-68
2023/01/22 11:29:36;;;;;;;14.85;8.13;;;4.70;99.90;;;;;;5062366;28;20044;-67
2023/01/22 11:32:31;;;;;;;9.70;5.57;;;4.70;99.90;;;;;;5051982;28;20047;-66
2023/01/22 11:35:22;;;;;;;9.80;5.60;;;4.50;99.90;;;;;;5036198;28;20034;-66
2023/01/22 11:38:17;;;;;;;11.30;6.35;;;4.50;99.90;;;;;;5031663;28;20116;-67
2023/01/22 11:41:07;;;;;;;15.32;6.30;;;4.60;99.90;;;;;;5047450;28;20061;-67
2023/01/22 11:43:45;;;;;;;8.85;5.80;;;4.60;99.90;;;;;;5033394;28;20037;-65
2023/01/22 11:46:44;;;;;;;9.65;6.03;;;4.70;99.90;;;;;;5041860;28;20039;-68
2023/01/22 11:49:43;;;;;;;11.50;5.70;;;4.70;99.90;;;;;;5045316;28;20098;-66
2023/01/22 11:52:40;;;;;;;12.27;6.07;;;4.60;99.90;;;;;;5039812;28;20048;-67
2023/01/22 11:55:42;;;;;;;13.63;5.45;;;4.70;99.90;;;;;;5033004;28;20033;-66
2023/01/22 11:58:26;;;;;;;9.68;5.85;;;4.70;99.90;;;;;;5024788;28;20049;-66
2023/01/22 12:01:24;;;;;;;10.20;6.43;;;4.70;99.90;;;;;;5043764;28;20091;-65
2023/01/22 12:04:05;;;;;;;8.70;5.80;;;4.60;99.90;;;;;;5008229;28;20045;-65
2023/01/22 12:07:01;;;;;;;10.55;6.13;;;4.70;99.90;;;;;;5032723;28;20077;-67
2023/01/22 12:10:08;;;;;;;9.25;5.80;;;4.60;99.90;;;;;;5036808;28;20080;-66
2023/01/22 12:13:05;;;;;;;15.35;6.40;;;4.60;99.90;;;;;;5048463;28;20042;-68
2023/01/22 12:15:52;;;;;;;9.30;6.43;;;4.60;99.90;;;;;;5023027;28;20076;-65
2023/01/22 12:19:12;;;;;;;10.40;5.97;;;4.60;99.90;;;;;;5031259;28;20041;-67
2023/01/22 12:22:00;;;;;;;10.82;5.53;;;4.60;99.90;;;;;;4994326;28;20482;-65
2023/01/22 12:24:42;;;;;;;12.27;6.03;;;4.80;99.90;;;;;;5025652;28;20087;-67
2023/01/22 12:27:29;;;;;;;9.43;5.40;;;4.70;99.90;;;;;;5050101;28;20042;-67
2023/01/22 12:30:10;;;;;;;9.27;5.18;;;4.80;99.90;;;;;;5033773;28;20122;-66
2023/01/22 12:32:37;;;;;;;8.55;5.30;;;4.80;99.90;;;;;;5032354;28;20041;-66
2023/01/22 12:35:08;;;;;;;11.02;6.35;;;4.80;99.90;;;;;;5028584;28;20041;-67
2023/01/22 12:38:05;;;;;;;9.45;6.25;;;4.60;99.90;;;;;;5023903;28;20119;-65
2023/01/22 12:41:01;;;;;;;7.25;5.85;;;4.60;99.90;;;;;;5040690;28;20045;-65
2023/01/22 12:43:35;;;;;;;7.20;5.65;;;4.70;99.90;;;;;;5038753;28;20050;-65
2023/01/22 12:46:08;;;;;;;8.50;6.05;;;4.70;99.90;;;;;;5050243;28;20056;-67
2023/01/22 12:48:50;;;;;;;10.35;6.03;;;4.60;99.90;;;;;;5040823;28;20065;-68
2023/01/22 12:51:35;;;;;;;8.95;5.18;;;4.60;99.90;;;;;;5012489;28;20132;-67
2023/01/22 12:54:21;;;;;;;8.68;5.88;;;4.70;99.90;;;;;;5014723;28;20092;-66
2023/01/22 12:56:49;;;;;;;10.10;5.35;;;4.70;99.90;;;;;;5060973;28;20034;-65
2023/01/22 12:59:41;;;;;;;7.47;5.43;;;4.60;99.90;;;;;;5033481;28;20075;-64
2023/01/22 13:02:34;;;;;;;8.48;5.50;;;4.70;99.90;;;;;;5028615;28;20073;-63
2023/01/22 13:05:21;;;;;;;7.47;5.35;;;4.60;99.90;;;;;;5026959;28;20041;-67
2023/01/22 13:07:47;;;;;;;6.50;5.15;;;4.60;99.90;;;;;;5043629;28;20064;-64
2023/01/22 13:10:19;;;;;;;8.70;5.15;;;4.80;99.90;;;;;;5026408;28;20129;-64
2023/01/22 13:13:19;;;;;;;7.85;4.50;;;4.70;99.90;;;;;;5031271;28;20069;-64
2023/01/22 13:15:55;;;;;;;6.22;4.78;;;4.70;99.90;;;;;;5018894;28;20042;-64
2023/01/22 13:18:24;;;;;;;;;;;4.70;99.90;;;;;;5023179;28;20468;-65
2023/01/22 13:21:07;;;;;;;5.75;4.60;;;4.60;99.90;;;;;;5047206;28;19917;-64
2023/01/22 13:23:38;;;;;;;7.18;4.93;;;4.60;99.90;;;;;;5037844;28;20041;-64